Bushyhead, Oklahoma
Current Conditions -  °F | °C
As of 4:15 PM on Monday 20 Oct 2014 (Local Time) from KGCM Reporting Station
Clear Clear  
Wind Chill: 73°   Ceiling: Unl
Heat Index: 73°   Visibility: 10mi
Dew Point: 59°   Wind: 5mph
Humidity: 61%   Direction: 120°ESE
Pressure: 30.05"   Gusts: NA
Location:  36.5486°N, 95.4793°W
Report Text: KGCM 202115Z AUTO 12004KT 10SM CLR 23/15 A3005 RMK AO2
Loading
Personal Weather Stations






























Interactive Weather Map
Tropical Storm Tracking
New forecast layout! Learn more

10-Day Weather Forecast

Advertisements
Track Severe Weather on mobile